Time;durP1;ratioP1;P1;durP2;ratioP2;P2;SDS_P1;SDS_P2;PMS_P1;PMS_P2;Temp;Humidity;BMP_temperature;BMP_pressure;BME280_temperature;BME280_humidity;BME280_pressure;Samples;Min_cycle;Max_cycle;Signal;HPM_P1;HPM_P2
2021/08/26 00:07:40;;;;;;;19.83;18.27;;;20.50;78.60;;;;;;5057800;28;20607;-35
2021/08/26 00:10:10;;;;;;;20.27;19.00;;;20.50;79.20;;;;;;5058385;28;20100;-35
2021/08/26 00:12:37;;;;;;;19.85;18.33;;;20.50;78.90;;;;;;5057968;28;20417;-36
2021/08/26 00:15:07;;;;;;;16.42;15.05;;;20.40;79.10;;;;;;5057905;28;20109;-36
2021/08/26 00:17:33;;;;;;;19.10;17.67;;;20.40;79.10;;;;;;5057522;28;20049;-35
2021/08/26 00:19:59;;;;;;;17.30;15.93;;;20.40;79.50;;;;;;5058087;28;20059;-35
2021/08/26 00:22:24;;;;;;;20.52;19.10;;;20.40;79.70;;;;;;5056595;28;20421;-35
2021/08/26 00:24:50;;;;;;;21.30;19.80;;;20.40;79.40;;;;;;5057679;28;20033;-34
2021/08/26 00:27:16;;;;;;;25.55;23.95;;;20.30;79.60;;;;;;5057423;28;20071;-34
2021/08/26 00:29:41;;;;;;;22.85;21.25;;;20.30;79.60;;;;;;5057583;28;20029;-34
2021/08/26 00:32:07;;;;;;;13.98;13.05;;;20.30;78.90;;;;;;5057667;28;20033;-35
2021/08/26 00:34:33;;;;;;;18.27;16.83;;;20.30;78.80;;;;;;5057407;28;20044;-35
2021/08/26 00:36:59;;;;;;;13.65;12.65;;;20.30;79.20;;;;;;5057656;28;20321;-35
2021/08/26 00:39:24;;;;;;;16.77;15.45;;;20.20;79.50;;;;;;5057501;28;20101;-35
2021/08/26 00:41:50;;;;;;;13.90;12.88;;;20.20;79.90;;;;;;5057183;28;20057;-35
2021/08/26 00:44:17;;;;;;;16.63;15.52;;;20.20;79.30;;;;;;5057525;28;20051;-35
2021/08/26 00:46:46;;;;;;;22.60;21.20;;;20.20;79.00;;;;;;5057243;28;20033;-35
2021/08/26 00:49:16;;;;;;;18.23;16.83;;;20.20;78.80;;;;;;5057211;28;20044;-35
2021/08/26 00:51:43;;;;;;;19.30;18.02;;;20.20;78.90;;;;;;5057121;28;20033;-35
2021/08/26 00:54:09;;;;;;;12.05;11.20;;;20.10;78.50;;;;;;5057102;28;20040;-34
2021/08/26 00:56:36;;;;;;;15.30;14.35;;;20.10;78.20;;;;;;5056834;28;20033;-35
2021/08/26 00:59:03;;;;;;;17.80;16.50;;;20.10;78.70;;;;;;5056908;28;20356;-35
2021/08/26 01:01:59;;;;;;;15.13;14.18;;;20.10;78.80;;;;;;5056872;28;20033;-35
2021/08/26 01:04:36;;;;;;;16.77;15.57;;;20.10;78.20;;;;;;5057050;28;20055;-35
2021/08/26 01:07:06;;;;;;;18.60;17.38;;;20.00;78.20;;;;;;5056749;28;20032;-35
2021/08/26 01:09:43;;;;;;;16.52;15.43;;;20.00;78.50;;;;;;5056922;28;20058;-35
2021/08/26 01:12:15;;;;;;;12.00;11.10;;;20.00;78.90;;;;;;5056620;28;20067;-35
2021/08/26 01:14:42;;;;;;;23.95;22.45;;;20.00;79.30;;;;;;5057062;28;20413;-35
2021/08/26 01:17:08;;;;;;;23.15;21.45;;;19.90;79.40;;;;;;5056513;28;20045;-35
2021/08/26 01:19:34;;;;;;;11.18;10.27;;;19.90;79.00;;;;;;5056983;28;20025;-35
2021/08/26 01:21:59;;;;;;;13.82;12.82;;;19.90;79.70;;;;;;5056404;28;20032;-36
2021/08/26 01:24:28;;;;;;;14.98;13.98;;;19.90;79.30;;;;;;5056575;28;20025;-35
2021/08/26 01:26:57;;;;;;;23.00;21.35;;;19.90;79.80;;;;;;5056581;28;20083;-35
2021/08/26 01:29:24;;;;;;;12.07;11.18;;;19.90;79.90;;;;;;5056297;28;20117;-35
2021/08/26 01:31:50;;;;;;;19.60;18.27;;;19.90;79.70;;;;;;5056279;28;20103;-35
2021/08/26 01:34:19;;;;;;;19.25;17.73;;;19.80;79.30;;;;;;5056171;28;20060;-35
2021/08/26 01:36:45;;;;;;;21.30;19.73;;;19.80;79.40;;;;;;5056357;28;20035;-35
2021/08/26 01:39:13;;;;;;;19.85;18.42;;;19.80;80.00;;;;;;5056375;28;20028;-35
2021/08/26 01:41:49;;;;;;;13.10;9.35;;;19.80;79.90;;;;;;5056257;28;20111;-36
2021/08/26 01:44:17;;;;;;;22.35;20.70;;;19.80;78.70;;;;;;5056234;28;20067;-35
2021/08/26 01:46:43;;;;;;;17.73;16.63;;;19.70;78.90;;;;;;5055981;28;20039;-35
2021/08/26 01:49:09;;;;;;;19.77;18.58;;;19.70;78.90;;;;;;5056134;28;20033;-35
2021/08/26 01:51:36;;;;;;;13.50;12.50;;;19.70;78.90;;;;;;5056253;28;20033;-36
2021/08/26 01:54:02;;;;;;;12.20;11.40;;;19.70;79.10;;;;;;5055995;28;20033;-35
2021/08/26 01:56:27;;;;;;;12.57;11.55;;;19.70;79.00;;;;;;5055833;28;20082;-35
2021/08/26 01:58:53;;;;;;;14.65;13.55;;;19.60;78.50;;;;;;5055956;28;20029;-35
2021/08/26 02:01:19;;;;;;;18.35;17.02;;;19.60;78.20;;;;;;5055925;28;20021;-36
2021/08/26 02:03:44;;;;;;;18.77;17.67;;;19.60;78.30;;;;;;5055935;28;20025;-35
2021/08/26 02:06:10;;;;;;;12.05;10.95;;;19.50;78.40;;;;;;5055840;28;20040;-35
2021/08/26 02:08:36;;;;;;;12.02;10.98;;;19.40;77.90;;;;;;5055549;28;20036;-35
2021/08/26 02:11:02;;;;;;;19.05;17.77;;;19.40;77.90;;;;;;5056327;28;20032;-36
2021/08/26 02:13:27;;;;;;;13.27;12.27;;;19.30;78.20;;;;;;5056016;28;20425;-35
2021/08/26 02:15:53;;;;;;;12.57;11.65;;;19.30;78.20;;;;;;5055813;28;20084;-36
2021/08/26 02:18:19;;;;;;;13.50;12.50;;;19.30;78.50;;;;;;5055755;28;20025;-35
2021/08/26 02:20:44;;;;;;;11.40;10.30;;;19.20;78.80;;;;;;5056023;28;20025;-35
2021/08/26 02:23:10;;;;;;;10.65;9.20;;;19.20;78.70;;;;;;5055956;28;20471;-35
2021/08/26 02:25:36;;;;;;;14.98;13.85;;;19.10;78.80;;;;;;5056017;28;20304;-36
2021/08/26 02:28:02;;;;;;;17.00;15.88;;;19.10;79.20;;;;;;5055442;28;20040;-35
2021/08/26 02:30:27;;;;;;;13.95;12.90;;;19.00;79.00;;;;;;5056019;28;20045;-36
2021/08/26 02:32:53;;;;;;;10.57;9.63;;;19.00;78.80;;;;;;5055684;28;20401;-35
2021/08/26 02:35:18;;;;;;;9.68;8.77;;;19.00;79.00;;;;;;5055895;28;20313;-36
2021/08/26 02:37:44;;;;;;;12.38;11.38;;;18.90;79.20;;;;;;5055476;28;20037;-35
2021/08/26 02:40:10;;;;;;;14.30;13.40;;;18.90;79.20;;;;;;5055882;28;20025;-35
2021/08/26 02:42:36;;;;;;;16.98;15.68;;;18.90;79.40;;;;;;5055390;28;20079;-35
2021/08/26 02:45:03;;;;;;;9.48;8.68;;;18.80;79.20;;;;;;5055544;28;20029;-35
2021/08/26 02:47:29;;;;;;;20.10;18.80;;;18.80;79.10;;;;;;5058563;28;20030;-35
2021/08/26 02:49:55;;;;;;;14.13;12.95;;;18.70;79.70;;;;;;5059549;28;20040;-35
2021/08/26 02:52:21;;;;;;;19.67;18.20;;;18.80;79.80;;;;;;5059524;28;20025;-36
2021/08/26 02:54:46;;;;;;;13.75;12.75;;;18.70;79.20;;;;;;5059245;28;20317;-40
2021/08/26 02:57:12;;;;;;;12.70;11.52;;;18.70;79.10;;;;;;5059167;28;20064;-36
2021/08/26 02:59:38;;;;;;;16.08;14.95;;;18.70;79.10;;;;;;5059081;28;20352;-35
2021/08/26 03:02:04;;;;;;;15.38;14.05;;;18.70;79.30;;;;;;5059119;28;20033;-35
2021/08/26 03:04:29;;;;;;;9.20;8.40;;;18.70;79.50;;;;;;5059374;28;20029;-36
2021/08/26 03:06:55;;;;;;;11.50;10.55;;;18.70;79.50;;;;;;5058924;28;20400;-35
2021/08/26 03:09:21;;;;;;;16.08;14.68;;;18.70;79.40;;;;;;5059224;28;20052;-35
2021/08/26 03:11:47;;;;;;;9.65;8.80;;;18.70;79.50;;;;;;5059203;28;20037;-35
2021/08/26 03:14:13;;;;;;;17.00;15.95;;;18.70;79.10;;;;;;5059080;28;20415;-35
2021/08/26 03:16:38;;;;;;;13.07;12.15;;;18.70;79.30;;;;;;5058617;28;20056;-35
2021/08/26 03:19:04;;;;;;;21.33;19.98;;;18.70;79.20;;;;;;5058801;28;20064;-35
2021/08/26 03:21:30;;;;;;;17.00;15.90;;;18.70;79.40;;;;;;5058824;28;20032;-35
2021/08/26 03:23:55;;;;;;;15.02;13.77;;;18.70;79.30;;;;;;5058565;28;20029;-35
2021/08/26 03:26:21;;;;;;;16.73;15.70;;;18.70;79.40;;;;;;5058783;28;20032;-35
2021/08/26 03:28:47;;;;;;;15.30;14.15;;;18.70;79.20;;;;;;5058497;28;20032;-36
2021/08/26 03:31:15;;;;;;;17.20;16.00;;;18.70;79.20;;;;;;5058496;28;20033;-35
2021/08/26 03:33:41;;;;;;;9.93;8.90;;;18.70;78.90;;;;;;5058589;28;20032;-35
2021/08/26 03:36:07;;;;;;;13.40;12.07;;;18.70;78.60;;;;;;5058500;28;20037;-35
2021/08/26 03:38:32;;;;;;;12.77;11.57;;;18.70;78.80;;;;;;5058699;28;20024;-35
2021/08/26 03:40:58;;;;;;;15.55;14.43;;;18.70;79.00;;;;;;5058310;28;20033;-35
2021/08/26 03:43:24;;;;;;;17.40;16.02;;;18.70;79.40;;;;;;5058494;28;20021;-35
2021/08/26 03:45:50;;;;;;;10.65;9.85;;;18.70;79.80;;;;;;5058708;28;20320;-36
2021/08/26 03:48:16;;;;;;;13.52;12.55;;;18.70;79.80;;;;;;5058529;28;20029;-35
2021/08/26 03:50:42;;;;;;;14.40;13.18;;;18.70;79.90;;;;;;5058287;28;20360;-35
2021/08/26 03:53:08;;;;;;;11.63;10.57;;;18.70;79.90;;;;;;5058137;28;20417;-35
2021/08/26 03:55:33;;;;;;;11.30;10.40;;;18.80;80.30;;;;;;5058450;28;20039;-35
2021/08/26 03:57:59;;;;;;;14.60;13.35;;;18.80;80.70;;;;;;5057654;28;20455;-35
2021/08/26 04:00:25;;;;;;;11.65;10.48;;;18.80;80.50;;;;;;5058393;28;20025;-35
2021/08/26 04:02:50;;;;;;;20.02;18.75;;;18.80;80.50;;;;;;5057807;28;20317;-35
2021/08/26 04:05:16;;;;;;;15.85;14.57;;;18.90;80.70;;;;;;5058326;28;20029;-36
2021/08/26 04:07:42;;;;;;;15.90;14.63;;;18.90;80.90;;;;;;5057709;28;20040;-35
2021/08/26 04:10:08;;;;;;;12.70;11.63;;;19.00;80.80;;;;;;5058118;28;20348;-36
2021/08/26 04:12:34;;;;;;;18.23;16.77;;;19.00;80.90;;;;;;5058153;28;20029;-36
2021/08/26 04:14:59;;;;;;;16.30;15.00;;;19.00;80.80;;;;;;5057792;28;20029;-36
2021/08/26 04:17:25;;;;;;;18.20;16.73;;;19.00;80.70;;;;;;5057359;28;20045;-35
2021/08/26 04:19:51;;;;;;;9.07;8.18;;;19.10;80.50;;;;;;5057463;28;20108;-35
2021/08/26 04:22:16;;;;;;;15.85;14.57;;;19.20;80.80;;;;;;5057090;28;20025;-35
2021/08/26 04:24:42;;;;;;;13.23;12.25;;;19.20;80.70;;;;;;5057215;28;20037;-35
2021/08/26 04:27:08;;;;;;;16.58;14.77;;;19.20;80.60;;;;;;5057030;28;20108;-35
2021/08/26 04:29:34;;;;;;;17.52;16.38;;;19.30;81.00;;;;;;5057288;28;20036;-35
2021/08/26 04:32:00;;;;;;;11.02;10.07;;;19.30;80.70;;;;;;5057168;28;20033;-36
2021/08/26 04:34:25;;;;;;;10.32;9.32;;;19.30;80.30;;;;;;5057315;28;20351;-35
2021/08/26 04:36:51;;;;;;;12.60;11.63;;;19.40;79.80;;;;;;5056623;28;20439;-35
2021/08/26 04:39:16;;;;;;;11.85;10.90;;;19.40;79.80;;;;;;5057154;28;20043;-35
2021/08/26 04:41:43;;;;;;;11.15;10.32;;;19.50;79.60;;;;;;5057094;28;20145;-34
2021/08/26 04:44:09;;;;;;;9.20;8.38;;;19.50;79.90;;;;;;5053807;28;20034;-34
2021/08/26 04:46:35;;;;;;;8.70;8.05;;;19.50;80.00;;;;;;5056588;28;20082;-36
2021/08/26 04:49:01;;;;;;;29.60;27.33;;;19.60;79.60;;;;;;5056725;28;20115;-36
2021/08/26 04:51:26;;;;;;;11.77;10.65;;;19.70;79.60;;;;;;5056868;28;20029;-35
2021/08/26 04:53:52;;;;;;;15.60;14.60;;;19.70;79.30;;;;;;5056548;28;20025;-36
2021/08/26 04:56:18;;;;;;;12.55;11.65;;;19.80;79.10;;;;;;5056663;28;20463;-36
2021/08/26 04:58:44;;;;;;;12.32;11.48;;;19.90;78.80;;;;;;5056079;28;20313;-36
2021/08/26 05:01:10;;;;;;;13.93;13.02;;;20.00;78.30;;;;;;5056488;28;20036;-35
2021/08/26 05:03:35;;;;;;;10.98;10.23;;;20.00;78.00;;;;;;5056211;28;20025;-36
2021/08/26 05:06:05;;;;;;;16.33;15.15;;;20.00;78.30;;;;;;5056828;28;20056;-36
2021/08/26 05:08:31;;;;;;;8.68;8.00;;;20.00;77.90;;;;;;5055785;28;20094;-35
2021/08/26 05:10:56;;;;;;;15.65;14.60;;;20.00;77.90;;;;;;5056529;28;20344;-35
2021/08/26 05:13:22;;;;;;;6.72;6.13;;;20.00;77.60;;;;;;5056173;28;20041;-36
2021/08/26 05:15:48;;;;;;;9.70;9.02;;;20.10;77.90;;;;;;5055835;28;20041;-36
2021/08/26 05:18:14;;;;;;;9.20;8.40;;;20.10;77.80;;;;;;5056217;28;20029;-36
2021/08/26 05:20:40;;;;;;;8.48;7.78;;;20.10;77.60;;;;;;5056484;28;20032;-35
2021/08/26 05:23:05;;;;;;;8.82;8.00;;;20.10;77.50;;;;;;5056139;28;20428;-35
2021/08/26 05:25:33;;;;;;;10.63;9.80;;;20.10;77.40;;;;;;5056371;28;20291;-35
2021/08/26 05:27:58;;;;;;;8.35;7.65;;;20.10;77.50;;;;;;5054788;28;20083;-36
2021/08/26 05:30:24;;;;;;;13.48;12.52;;;20.10;77.80;;;;;;5056625;28;20056;-35
2021/08/26 05:32:50;;;;;;;14.43;13.32;;;20.10;77.90;;;;;;5056446;28;20048;-36
2021/08/26 05:35:16;;;;;;;11.00;10.13;;;20.20;77.70;;;;;;5056398;28;20033;-35
2021/08/26 05:37:42;;;;;;;10.88;10.00;;;20.20;77.20;;;;;;5055862;28;20040;-35
2021/08/26 05:40:08;;;;;;;8.80;8.00;;;20.20;76.80;;;;;;5056173;28;20025;-35
2021/08/26 05:42:34;;;;;;;15.50;14.40;;;20.20;76.40;;;;;;5055687;28;20182;-36
2021/08/26 05:44:59;;;;;;;7.82;7.13;;;20.20;76.10;;;;;;5056347;28;20053;-35
2021/08/26 05:47:25;;;;;;;7.80;7.20;;;20.20;76.20;;;;;;5055764;28;20028;-35
2021/08/26 05:49:50;;;;;;;10.30;9.48;;;20.20;76.60;;;;;;5055860;28;20040;-35
2021/08/26 05:52:16;;;;;;;10.93;10.07;;;20.20;76.70;;;;;;5055581;28;20329;-35
2021/08/26 05:54:42;;;;;;;10.93;10.18;;;20.30;76.20;;;;;;5054662;28;20029;-35
2021/08/26 05:57:07;;;;;;;8.77;8.10;;;20.30;76.20;;;;;;5054948;28;20116;-35
2021/08/26 05:59:33;;;;;;;7.53;6.75;;;20.40;75.60;;;;;;5055885;28;20025;-35
2021/08/26 06:02:00;;;;;;;6.05;5.55;;;20.40;75.10;;;;;;5055633;28;20037;-35
2021/08/26 06:04:26;;;;;;;7.85;6.10;;;20.40;74.80;;;;;;5055944;28;20352;-35
2021/08/26 06:06:52;;;;;;;8.88;8.05;;;20.40;74.70;;;;;;5055642;28;20043;-35
2021/08/26 06:09:17;;;;;;;7.75;7.18;;;20.50;74.80;;;;;;5055359;28;20112;-35
2021/08/26 06:11:43;;;;;;;10.05;9.20;;;20.50;74.70;;;;;;5055713;28;20073;-34
2021/08/26 06:14:10;;;;;;;6.55;5.95;;;20.50;74.60;;;;;;5055328;28;20053;-34
2021/08/26 06:16:35;;;;;;;6.75;5.97;;;20.50;74.20;;;;;;5055185;28;20095;-35
2021/08/26 06:19:01;;;;;;;7.30;5.80;;;20.60;74.50;;;;;;5055487;28;20355;-34
2021/08/26 06:21:27;;;;;;;9.27;8.57;;;20.60;74.30;;;;;;5058536;28;20048;-35
2021/08/26 06:23:53;;;;;;;11.00;5.93;;;20.60;74.30;;;;;;5059353;28;20310;-36
2021/08/26 06:26:19;;;;;;;8.45;7.60;;;20.60;74.00;;;;;;5055921;28;20044;-35
2021/08/26 06:28:44;;;;;;;5.90;5.28;;;20.60;74.10;;;;;;5059046;28;20025;-35
2021/08/26 06:31:10;;;;;;;9.00;8.27;;;20.60;73.90;;;;;;5059437;28;20025;-34
2021/08/26 06:33:36;;;;;;;7.45;6.75;;;20.70;74.10;;;;;;5059295;28;20029;-35
2021/08/26 06:36:02;;;;;;;11.25;10.27;;;20.80;73.40;;;;;;5059517;28;20347;-35
2021/08/26 06:38:27;;;;;;;8.45;7.63;;;20.90;73.20;;;;;;5058856;28;20036;-35
2021/08/26 06:40:53;;;;;;;6.50;5.80;;;21.00;72.80;;;;;;5059495;28;20037;-35
2021/08/26 06:43:19;;;;;;;7.53;6.65;;;21.00;72.30;;;;;;5059157;28;20032;-35
2021/08/26 06:45:44;;;;;;;6.32;5.47;;;21.10;72.00;;;;;;5059322;28;20087;-34
2021/08/26 06:48:10;;;;;;;10.15;6.68;;;21.20;72.20;;;;;;5058479;28;20036;-35
2021/08/26 06:50:36;;;;;;;6.18;5.57;;;21.30;71.70;;;;;;5059223;28;20033;-35
2021/08/26 06:53:02;;;;;;;7.25;6.55;;;21.40;71.40;;;;;;5058608;28;20033;-36
2021/08/26 06:55:27;;;;;;;5.60;5.10;;;21.40;71.10;;;;;;5058526;28;20396;-35
2021/08/26 06:57:53;;;;;;;6.53;6.00;;;21.50;70.80;;;;;;5058245;28;20036;-34
2021/08/26 07:00:19;;;;;;;6.90;6.35;;;21.50;70.90;;;;;;5058821;28;20029;-34
2021/08/26 07:02:45;;;;;;;7.43;6.75;;;21.60;71.00;;;;;;5058213;28;20339;-34
2021/08/26 07:05:12;;;;;;;8.00;7.30;;;21.60;70.70;;;;;;5058898;28;20060;-35
2021/08/26 07:07:37;;;;;;;10.02;8.57;;;21.70;70.80;;;;;;5058097;28;20033;-35
2021/08/26 07:10:04;;;;;;;7.65;6.95;;;21.80;70.30;;;;;;5058586;28;20029;-34
2021/08/26 07:12:32;;;;;;;10.27;7.68;;;21.80;69.80;;;;;;5058359;28;20052;-34
2021/08/26 07:14:59;;;;;;;8.77;6.70;;;21.90;69.80;;;;;;5059015;28;20082;-35
2021/08/26 07:17:25;;;;;;;7.07;6.38;;;21.90;69.30;;;;;;5058111;28;20056;-35
2021/08/26 07:19:51;;;;;;;7.88;7.20;;;21.90;69.10;;;;;;5058680;28;20025;-34
2021/08/26 07:22:17;;;;;;;9.38;6.95;;;21.90;69.40;;;;;;5058097;28;20029;-34
2021/08/26 07:24:43;;;;;;;8.98;8.20;;;22.00;70.10;;;;;;5058597;28;20356;-35
2021/08/26 07:27:10;;;;;;;8.13;7.32;;;22.00;70.40;;;;;;5057617;28;20452;-34
2021/08/26 07:29:36;;;;;;;9.75;8.13;;;22.00;70.60;;;;;;5058538;28;20333;-34
2021/08/26 07:32:02;;;;;;;7.57;6.82;;;22.10;70.10;;;;;;5057294;28;20425;-35
2021/08/26 07:34:28;;;;;;;79.10;45.58;;;22.10;70.10;;;;;;5057971;28;20112;-34
2021/08/26 07:36:53;;;;;;;16.55;12.38;;;22.10;70.00;;;;;;5057861;28;20128;-35
2021/08/26 07:39:19;;;;;;;48.00;32.80;;;22.10;70.00;;;;;;5057845;28;20071;-35
2021/08/26 07:41:44;;;;;;;19.88;16.20;;;22.20;69.60;;;;;;5057800;28;20033;-34
2021/08/26 07:44:10;;;;;;;30.55;20.23;;;22.20;69.60;;;;;;5057979;28;20025;-35
2021/08/26 07:46:36;;;;;;;9.90;8.90;;;22.20;69.50;;;;;;5058294;28;20040;-35
2021/08/26 07:49:02;;;;;;;14.80;11.07;;;22.30;69.50;;;;;;5057835;28;20376;-34
2021/08/26 07:51:28;;;;;;;15.98;13.43;;;22.30;68.90;;;;;;5058063;28;20047;-34
2021/08/26 07:53:54;;;;;;;16.00;13.05;;;22.30;68.70;;;;;;5057642;28;20397;-34
2021/08/26 07:56:19;;;;;;;17.17;14.70;;;22.40;68.70;;;;;;5057641;28;20039;-35
2021/08/26 07:58:45;;;;;;;12.13;10.93;;;22.30;68.80;;;;;;5057727;28;20032;-35
2021/08/26 08:01:10;;;;;;;11.43;10.43;;;22.40;68.80;;;;;;5057782;28;20075;-35
2021/08/26 08:03:36;;;;;;;15.15;12.38;;;22.40;69.00;;;;;;5056181;28;20354;-36
2021/08/26 08:06:02;;;;;;;20.45;18.33;;;22.40;69.20;;;;;;5057950;28;20065;-35
2021/08/26 08:08:28;;;;;;;20.02;17.38;;;22.50;69.20;;;;;;5057529;28;20029;-36
2021/08/26 08:10:54;;;;;;;11.88;10.68;;;22.50;68.70;;;;;;5057867;28;20060;-35
2021/08/26 08:13:19;;;;;;;17.90;14.23;;;22.60;68.60;;;;;;5057609;28;20413;-35
2021/08/26 08:15:45;;;;;;;16.95;14.65;;;22.70;68.70;;;;;;5057040;28;20060;-34
2021/08/26 08:18:13;;;;;;;28.83;25.30;;;22.80;68.30;;;;;;5057310;28;20025;-35
2021/08/26 08:20:40;;;;;;;24.95;18.85;;;22.80;67.80;;;;;;5057750;28;20310;-35
2021/08/26 08:23:07;;;;;;;11.80;10.70;;;22.90;67.60;;;;;;5056455;28;20025;-36
2021/08/26 08:25:32;;;;;;;12.52;11.43;;;22.90;67.70;;;;;;5057734;28;20040;-36
2021/08/26 08:27:58;;;;;;;11.20;10.02;;;22.90;67.60;;;;;;5057085;28;20029;-36
2021/08/26 08:30:27;;;;;;;10.48;9.50;;;22.90;68.00;;;;;;5057320;28;20037;-35
2021/08/26 08:32:57;;;;;;;10.55;9.55;;;22.90;67.60;;;;;;5057289;28;20040;-34
2021/08/26 08:35:23;;;;;;;11.73;10.57;;;22.90;67.70;;;;;;5056062;28;20071;-36
2021/08/26 08:37:50;;;;;;;11.38;10.23;;;22.90;67.60;;;;;;5056825;28;20094;-34
2021/08/26 08:40:15;;;;;;;11.75;10.45;;;22.90;67.80;;;;;;5053750;28;20131;-35
2021/08/26 08:42:43;;;;;;;12.57;11.45;;;23.00;68.30;;;;;;5056654;28;20116;-35
2021/08/26 08:45:09;;;;;;;11.55;10.38;;;23.00;67.70;;;;;;5055875;28;20175;-36
2021/08/26 08:47:37;;;;;;;9.82;8.90;;;23.10;67.80;;;;;;5056394;28;20055;-36
2021/08/26 08:50:04;;;;;;;10.25;9.25;;;23.20;67.30;;;;;;5056153;28;20029;-36
2021/08/26 08:52:38;;;;;;;11.10;9.93;;;23.30;66.90;;;;;;5056026;28;20061;-35
2021/08/26 08:55:07;;;;;;;9.95;8.95;;;23.40;67.10;;;;;;5056690;28;20087;-35
2021/08/26 08:57:32;;;;;;;12.88;9.43;;;23.50;66.80;;;;;;5056109;28;20037;-36
2021/08/26 08:59:58;;;;;;;11.98;9.65;;;23.50;66.00;;;;;;5055981;28;20028;-36
2021/08/26 09:02:27;;;;;;;11.55;9.65;;;23.60;66.20;;;;;;5055552;28;20037;-36
2021/08/26 09:04:58;;;;;;;9.15;8.15;;;23.60;66.30;;;;;;5056340;28;20028;-35
2021/08/26 09:07:28;;;;;;;13.52;10.23;;;23.60;66.30;;;;;;5056182;28;20352;-36
2021/08/26 09:09:54;;;;;;;14.35;9.70;;;23.70;66.00;;;;;;5056359;28;20033;-35
2021/08/26 09:12:43;;;;;;;14.85;9.73;;;23.70;66.20;;;;;;5055994;28;20056;-36
2021/08/26 09:15:13;;;;;;;11.00;9.32;;;23.70;66.30;;;;;;5055602;28;20090;-35
2021/08/26 09:17:40;;;;;;;11.40;8.95;;;23.80;66.20;;;;;;5055757;28;20085;-37
2021/08/26 09:20:08;;;;;;;11.02;10.02;;;23.80;66.10;;;;;;5056023;28;20136;-36
2021/08/26 09:22:34;;;;;;;9.98;8.43;;;23.90;65.80;;;;;;5055398;28;20029;-35
2021/08/26 09:25:00;;;;;;;9.02;8.18;;;24.00;65.70;;;;;;5056232;28;20028;-37
2021/08/26 09:27:35;;;;;;;10.40;9.48;;;24.00;65.20;;;;;;5055601;28;20322;-35
2021/08/26 09:30:16;;;;;;;9.98;8.70;;;24.10;65.50;;;;;;5055812;28;20025;-37
2021/08/26 09:32:46;;;;;;;11.15;8.20;;;24.10;65.20;;;;;;5055706;28;20067;-35
2021/08/26 09:35:25;;;;;;;12.25;8.40;;;24.10;65.40;;;;;;5055674;28;20095;-35
2021/08/26 09:37:56;;;;;;;11.18;9.45;;;24.10;65.20;;;;;;5055337;28;20084;-35
2021/08/26 09:40:24;;;;;;;12.10;9.18;;;24.20;64.70;;;;;;5055671;28;20029;-34
2021/08/26 09:43:01;;;;;;;9.52;8.52;;;24.20;65.10;;;;;;5054916;28;20063;-32
2021/08/26 09:45:31;;;;;;;10.63;8.48;;;24.20;65.10;;;;;;5055343;28;20039;-33
2021/08/26 09:48:11;;;;;;;11.00;9.20;;;24.30;64.90;;;;;;5055190;28;20037;-40
2021/08/26 09:50:48;;;;;;;8.93;8.02;;;24.30;64.80;;;;;;5055588;28;20278;-40
2021/08/26 09:53:17;;;;;;;13.02;8.73;;;24.20;64.80;;;;;;5052548;28;20025;-41
2021/08/26 09:55:48;;;;;;;9.32;8.40;;;24.20;64.80;;;;;;5055015;28;20047;-32
2021/08/26 09:58:19;;;;;;;12.38;9.23;;;24.30;64.60;;;;;;5054947;28;20455;-33
2021/08/26 10:00:45;;;;;;;10.30;9.00;;;24.20;65.10;;;;;;5055514;28;20077;-41
2021/08/26 10:03:12;;;;;;;8.82;8.13;;;24.10;65.30;;;;;;5055148;28;20036;-32
2021/08/26 10:05:42;;;;;;;11.23;8.00;;;24.10;65.50;;;;;;5055516;28;20033;-41
2021/08/26 10:08:08;;;;;;;16.88;8.65;;;24.10;65.50;;;;;;5055539;28;20150;-41
2021/08/26 10:10:35;;;;;;;10.27;8.10;;;24.00;65.40;;;;;;5055528;28;20064;-32
2021/08/26 10:13:01;;;;;;;9.48;8.43;;;24.00;65.40;;;;;;5054911;28;20029;-42
2021/08/26 10:15:27;;;;;;;9.98;7.82;;;24.00;66.20;;;;;;5055155;28;20417;-33
2021/08/26 10:17:55;;;;;;;8.57;7.78;;;23.90;66.20;;;;;;5054555;28;20341;-42
2021/08/26 10:20:21;;;;;;;11.82;9.23;;;23.90;66.10;;;;;;5055372;28;20024;-34
2021/08/26 10:22:52;;;;;;;8.18;7.38;;;23.90;66.20;;;;;;5054745;28;20032;-33
2021/08/26 10:25:18;;;;;;;8.63;7.70;;;23.90;66.60;;;;;;5054013;28;20060;-42
2021/08/26 10:27:45;;;;;;;8.63;7.82;;;23.90;67.00;;;;;;5054494;28;20467;-43
2021/08/26 10:30:29;;;;;;;8.65;7.50;;;23.90;67.00;;;;;;5055305;28;20364;-33
2021/08/26 10:33:06;;;;;;;11.00;7.78;;;23.80;67.00;;;;;;5054434;28;20037;-42
2021/08/26 10:35:33;;;;;;;9.48;8.23;;;23.80;67.40;;;;;;5054697;28;20079;-42
2021/08/26 10:37:59;;;;;;;9.02;7.97;;;23.80;67.30;;;;;;5054594;28;20037;-42
2021/08/26 10:40:29;;;;;;;12.40;8.07;;;23.80;68.00;;;;;;5055163;28;20032;-42
2021/08/26 10:42:56;;;;;;;19.02;9.43;;;23.80;67.30;;;;;;5054868;28;20139;-34
2021/08/26 10:45:29;;;;;;;8.93;8.07;;;23.80;67.40;;;;;;5055101;28;20445;-34
2021/08/26 10:47:57;;;;;;;8.65;7.75;;;23.80;67.20;;;;;;5054494;28;20044;-38
2021/08/26 10:50:33;;;;;;;14.00;10.20;;;23.80;67.40;;;;;;5055078;28;20055;-42
2021/08/26 10:53:19;;;;;;;13.35;11.52;;;23.80;67.60;;;;;;5054774;28;20065;-34
2021/08/26 10:55:47;;;;;;;9.07;8.27;;;23.80;67.70;;;;;;5054016;28;20037;-33
2021/08/26 10:58:25;;;;;;;9.90;8.98;;;23.70;68.10;;;;;;5054239;28;20036;-33
2021/08/26 11:01:15;;;;;;;9.10;7.57;;;23.70;67.60;;;;;;5054984;28;20028;-32
2021/08/26 11:03:47;;;;;;;;;;;23.70;68.20;;;;;;5054848;28;20040;-42
2021/08/26 11:06:28;;;;;;;8.18;7.38;;;23.60;68.00;;;;;;5054495;28;19981;-33
2021/08/26 11:08:59;;;;;;;8.60;7.85;;;23.60;68.10;;;;;;5058027;28;20071;-33
2021/08/26 11:11:30;;;;;;;9.02;8.13;;;23.60;68.00;;;;;;5058881;28;20128;-45
2021/08/26 11:14:05;;;;;;;8.95;8.15;;;23.50;68.30;;;;;;5058446;28;20040;-43
2021/08/26 11:16:38;;;;;;;10.35;9.07;;;23.50;68.80;;;;;;5058043;28;20044;-43
2021/08/26 11:19:15;;;;;;;10.60;9.50;;;23.50;68.50;;;;;;5056244;28;20290;-34
2021/08/26 11:21:44;;;;;;;10.63;8.60;;;23.40;68.50;;;;;;5058319;28;20112;-44
2021/08/26 11:24:15;;;;;;;15.27;11.25;;;23.40;68.50;;;;;;5058008;28;20036;-43
2021/08/26 11:26:55;;;;;;;9.20;8.35;;;23.40;68.80;;;;;;5058526;28;20302;-42
2021/08/26 11:29:20;;;;;;;8.85;7.50;;;23.40;68.80;;;;;;5058013;28;20104;-34
2021/08/26 11:31:55;;;;;;;11.40;10.20;;;23.40;69.10;;;;;;5058189;28;20267;-34
2021/08/26 11:34:36;;;;;;;8.25;7.45;;;23.40;69.20;;;;;;5058070;28;20462;-33
2021/08/26 11:37:03;;;;;;;10.00;7.97;;;23.30;69.40;;;;;;5057679;28;20100;-33
2021/08/26 11:39:30;;;;;;;8.13;7.30;;;23.20;69.30;;;;;;5058305;28;20040;-42
2021/08/26 11:41:56;;;;;;;9.02;8.25;;;23.20;69.70;;;;;;5057939;28;20105;-43
2021/08/26 11:44:22;;;;;;;11.15;10.05;;;23.20;70.80;;;;;;5057962;28;20471;-43
2021/08/26 11:46:48;;;;;;;12.30;11.10;;;23.10;71.10;;;;;;5058012;28;20325;-33
2021/08/26 11:49:14;;;;;;;12.80;11.68;;;23.10;72.30;;;;;;5057623;28;20036;-34
2021/08/26 11:51:40;;;;;;;10.55;9.55;;;23.00;72.60;;;;;;5057924;28;20044;-33
2021/08/26 11:54:23;;;;;;;15.07;13.57;;;23.00;72.90;;;;;;5057878;28;20021;-34
2021/08/26 11:56:54;;;;;;;12.80;11.50;;;23.00;73.20;;;;;;5056811;28;20041;-43
2021/08/26 11:59:34;;;;;;;12.80;11.70;;;23.00;73.60;;;;;;5057683;28;20025;-43
2021/08/26 12:02:18;;;;;;;13.38;12.13;;;22.90;73.80;;;;;;5057697;28;20033;-43
2021/08/26 12:04:46;;;;;;;14.07;12.90;;;22.90;73.60;;;;;;5057471;28;20063;-36
2021/08/26 12:07:29;;;;;;;11.30;10.10;;;22.80;74.10;;;;;;5057436;28;20052;-40
2021/08/26 12:09:57;;;;;;;10.90;9.80;;;22.80;74.40;;;;;;5057920;28;20302;-42
2021/08/26 12:12:23;;;;;;;14.32;13.15;;;22.80;74.80;;;;;;5053852;28;20048;-43
2021/08/26 12:14:49;;;;;;;21.23;19.52;;;22.80;74.50;;;;;;5052920;28;20021;-35
2021/08/26 12:17:20;;;;;;;16.45;14.88;;;22.80;74.60;;;;;;5056608;28;20441;-42
2021/08/26 12:19:48;;;;;;;16.10;12.77;;;22.80;74.90;;;;;;5056714;28;20037;-42
2021/08/26 12:22:20;;;;;;;12.52;11.23;;;22.80;74.90;;;;;;5056540;28;20437;-33
2021/08/26 12:25:00;;;;;;;14.52;13.13;;;22.80;75.40;;;;;;5056880;28;20037;-42
2021/08/26 12:27:28;;;;;;;15.73;14.43;;;22.80;75.70;;;;;;5056235;28;20114;-33
2021/08/26 12:29:54;;;;;;;14.27;12.93;;;22.90;76.20;;;;;;5056617;28;20041;-33
2021/08/26 12:32:38;;;;;;;11.77;10.57;;;22.90;75.60;;;;;;5056545;28;20084;-34
2021/08/26 12:35:27;;;;;;;20.23;18.33;;;23.00;75.50;;;;;;5056692;28;20033;-35
2021/08/26 12:38:00;;;;;;;19.63;17.60;;;23.00;75.20;;;;;;5056699;28;20104;-33
2021/08/26 12:40:48;;;;;;;17.55;15.95;;;23.00;75.40;;;;;;5056415;28;20063;-37
2021/08/26 12:43:14;;;;;;;15.30;13.80;;;23.00;75.10;;;;;;5056377;28;20032;-36